TAF Text Data
IDs:
Format:
Raw Decoded Include METAR

Data at: 1216 UTC 17 Sep 2019

KTCL 171133Z 1712/1812 00000KT P6SM SKC
  FM171700 33005KT P6SM FEW070
  FM180000 00000KT P6SM SKC